Time;durP1;ratioP1;P1;durP2;ratioP2;P2;SDS_P1;SDS_P2;PMS_P1;PMS_P2;Temp;Humidity;BMP_temperature;BMP_pressure;BME280_temperature;BME280_humidity;BME280_pressure;Samples;Min_cycle;Max_cycle;Signal;HPM_P1;HPM_P2
2023/04/16 00:01:45;;;;;;;4.77;2.53;;;9.40;98.00;;;;;;5033984;28;20528;-65
2023/04/16 00:04:12;;;;;;;5.83;2.73;;;9.40;98.00;;;;;;5033924;28;20524;-64
2023/04/16 00:06:39;;;;;;;5.70;3.20;;;9.30;98.00;;;;;;5034135;28;20462;-65
2023/04/16 00:09:07;;;;;;;7.50;3.37;;;9.20;98.00;;;;;;5033716;28;20519;-65
2023/04/16 00:11:34;;;;;;;4.43;2.70;;;9.30;98.00;;;;;;5033686;28;20493;-65
2023/04/16 00:14:02;;;;;;;6.87;2.97;;;9.30;98.00;;;;;;5033252;28;20513;-65
2023/04/16 00:16:29;;;;;;;5.07;2.80;;;9.30;98.00;;;;;;5033533;28;20485;-64
2023/04/16 00:18:56;;;;;;;2.87;2.07;;;9.20;98.00;;;;;;5032570;28;20450;-64
2023/04/16 00:21:25;;;;;;;5.07;2.90;;;9.20;98.00;;;;;;5033696;28;20539;-65
2023/04/16 00:23:52;;;;;;;5.57;2.80;;;9.30;98.00;;;;;;5032115;28;20504;-65
2023/04/16 00:26:21;;;;;;;5.53;3.57;;;9.40;98.00;;;;;;5033607;28;20451;-64
2023/04/16 00:28:48;;;;;;;6.33;3.10;;;9.40;98.00;;;;;;5033415;28;20805;-65
2023/04/16 00:31:15;;;;;;;3.97;2.43;;;9.40;98.00;;;;;;5033342;28;20452;-65
2023/04/16 00:33:42;;;;;;;5.03;2.80;;;9.40;98.00;;;;;;5033528;28;20470;-64
2023/04/16 00:36:10;;;;;;;3.97;2.13;;;9.40;98.00;;;;;;5033670;28;20545;-66
2023/04/16 00:38:37;;;;;;;5.40;2.53;;;9.40;98.00;;;;;;5033771;28;20866;-65
2023/04/16 00:41:04;;;;;;;5.50;2.87;;;9.40;98.00;;;;;;5033272;28;20477;-65
2023/04/16 00:43:33;;;;;;;5.40;2.70;;;9.40;98.00;;;;;;5031866;28;20806;-65
2023/04/16 00:46:04;;;;;;;4.97;2.40;;;9.30;98.00;;;;;;5033129;28;20864;-66
2023/04/16 00:48:31;;;;;;;3.57;2.33;;;9.40;98.00;;;;;;5033314;28;20494;-65
2023/04/16 00:51:00;;;;;;;6.93;3.40;;;9.40;98.00;;;;;;5033374;28;20459;-67
2023/04/16 00:53:27;;;;;;;4.07;3.00;;;9.40;98.00;;;;;;5033111;28;20539;-65
2023/04/16 00:55:56;;;;;;;7.13;2.70;;;9.30;98.00;;;;;;5032622;28;20490;-67
2023/04/16 00:58:23;;;;;;;5.67;2.90;;;9.30;98.00;;;;;;5032832;28;20451;-66
2023/04/16 01:00:52;;;;;;;4.60;2.73;;;9.40;98.00;;;;;;5033035;28;20458;-66
2023/04/16 01:03:19;;;;;;;6.60;2.73;;;9.20;98.00;;;;;;5032954;28;20887;-66
2023/04/16 01:05:48;;;;;;;3.93;2.60;;;9.20;98.00;;;;;;5031587;28;20462;-66
2023/04/16 01:08:17;;;;;;;10.67;3.57;;;9.30;98.00;;;;;;5031320;28;20493;-65
2023/04/16 01:10:45;;;;;;;5.40;2.43;;;9.30;98.00;;;;;;5032489;28;20814;-67
2023/04/16 01:13:14;;;;;;;8.90;3.20;;;9.30;98.00;;;;;;5032431;28;20463;-65
2023/04/16 01:15:41;;;;;;;5.07;2.40;;;9.40;98.00;;;;;;5032498;28;20490;-66
2023/04/16 01:18:15;;;;;;;4.10;3.10;;;9.40;98.00;;;;;;5032560;28;20451;-65
2023/04/16 01:20:44;;;;;;;4.43;2.77;;;9.40;98.00;;;;;;5032497;28;20540;-65
2023/04/16 01:23:11;;;;;;;5.27;2.40;;;9.30;98.00;;;;;;5032211;28;20459;-66
2023/04/16 01:25:38;;;;;;;5.00;2.73;;;9.30;98.00;;;;;;5031404;28;20482;-65
2023/04/16 01:28:07;;;;;;;6.27;3.00;;;9.30;98.00;;;;;;5032416;28;20450;-65
2023/04/16 01:30:34;;;;;;;4.83;2.83;;;9.40;98.00;;;;;;5032473;28;20855;-66
2023/04/16 01:33:01;;;;;;;13.03;2.70;;;9.40;98.00;;;;;;5032246;28;20860;-65
2023/04/16 01:35:29;;;;;;;4.03;2.80;;;9.40;98.00;;;;;;5032263;28;21020;-65
2023/04/16 01:37:57;;;;;;;5.20;3.00;;;9.40;98.00;;;;;;5032568;28;20458;-66
2023/04/16 01:40:25;;;;;;;12.43;3.70;;;9.40;98.00;;;;;;5032333;28;20455;-68
2023/04/16 01:42:52;;;;;;;4.23;2.67;;;9.40;98.00;;;;;;5031991;28;20522;-65
2023/04/16 01:45:19;;;;;;;6.90;2.63;;;9.40;98.00;;;;;;5032370;28;20463;-66
2023/04/16 01:47:48;;;;;;;3.77;2.73;;;9.40;98.00;;;;;;5031788;28;20480;-67
2023/04/16 01:50:16;;;;;;;4.50;2.80;;;9.40;98.00;;;;;;5031973;28;20505;-66
2023/04/16 01:52:44;;;;;;;8.03;3.50;;;9.40;98.00;;;;;;5031676;28;20949;-66
2023/04/16 01:55:14;;;;;;;3.50;2.40;;;9.30;98.00;;;;;;5031655;28;20474;-65
2023/04/16 01:57:51;;;;;;;4.93;2.93;;;9.30;98.00;;;;;;5150460;27;20566;-64
2023/04/16 02:00:18;;;;;;;5.10;2.67;;;9.30;98.00;;;;;;5129490;28;20454;-63
2023/04/16 02:02:45;;;;;;;3.63;2.43;;;9.20;98.00;;;;;;5129371;28;20943;-65
2023/04/16 02:05:12;;;;;;;5.53;3.00;;;9.20;98.00;;;;;;5111074;28;21007;-65
2023/04/16 02:07:47;;;;;;;6.10;2.70;;;9.20;98.00;;;;;;5129221;28;21007;-65
2023/04/16 02:10:14;;;;;;;5.93;2.77;;;9.20;98.00;;;;;;5129273;28;20545;-65
2023/04/16 02:12:41;;;;;;;4.57;2.50;;;9.20;98.00;;;;;;5129119;28;20595;-66
2023/04/16 02:15:10;;;;;;;6.87;3.17;;;9.20;98.00;;;;;;5129189;28;20452;-65
2023/04/16 02:17:37;;;;;;;4.67;2.30;;;9.00;98.00;;;;;;5129184;28;20850;-65
2023/04/16 02:20:07;;;;;;;5.50;3.27;;;8.90;98.00;;;;;;5129212;28;20515;-66
2023/04/16 02:22:34;;;;;;;5.03;3.03;;;9.10;98.00;;;;;;5128949;28;20457;-65
2023/04/16 02:25:01;;;;;;;8.23;2.90;;;9.10;98.00;;;;;;5128975;28;20543;-64
2023/04/16 02:27:28;;;;;;;5.90;2.83;;;9.00;98.00;;;;;;5128851;28;20446;-65
2023/04/16 02:29:55;;;;;;;3.57;2.50;;;9.00;98.00;;;;;;5129098;28;20464;-64
2023/04/16 02:32:23;;;;;;;5.67;3.20;;;9.00;98.00;;;;;;5128967;28;20967;-65
2023/04/16 02:34:50;;;;;;;6.30;2.70;;;9.10;98.00;;;;;;5129164;28;20502;-65
2023/04/16 02:37:17;;;;;;;3.60;2.17;;;9.10;98.00;;;;;;5128756;28;20474;-64
2023/04/16 02:39:46;;;;;;;3.97;2.20;;;9.20;98.00;;;;;;5128792;28;21031;-64
2023/04/16 02:42:14;;;;;;;5.30;3.10;;;9.20;98.00;;;;;;5128729;28;20480;-66
2023/04/16 02:44:42;;;;;;;5.83;3.27;;;9.20;98.00;;;;;;5128578;28;20546;-65
2023/04/16 02:47:09;;;;;;;4.77;1.90;;;9.10;98.00;;;;;;5128638;28;20457;-65
2023/04/16 02:49:38;;;;;;;3.43;2.23;;;8.90;98.00;;;;;;5128464;28;20513;-64
2023/04/16 02:52:05;;;;;;;4.40;2.13;;;9.00;98.00;;;;;;5128525;28;20522;-65
2023/04/16 02:54:32;;;;;;;3.10;1.83;;;9.10;98.00;;;;;;5128384;28;20824;-65
2023/04/16 02:56:59;;;;;;;3.07;1.90;;;9.20;98.00;;;;;;5128083;28;21007;-65
2023/04/16 02:59:27;;;;;;;5.10;2.60;;;9.20;98.00;;;;;;5110440;28;20957;-65
2023/04/16 03:01:54;;;;;;;3.47;2.23;;;9.20;98.00;;;;;;5128703;28;20454;-64
2023/04/16 03:04:21;;;;;;;3.20;2.57;;;9.30;98.00;;;;;;5128724;28;20450;-66
2023/04/16 03:06:50;;;;;;;2.93;2.10;;;9.30;98.00;;;;;;5110434;28;20458;-66
2023/04/16 03:09:17;;;;;;;5.67;2.63;;;9.30;98.00;;;;;;5114001;28;20449;-65
2023/04/16 03:11:44;;;;;;;4.13;2.40;;;9.20;98.00;;;;;;5114520;28;20459;-67
2023/04/16 03:14:11;;;;;;;2.70;1.90;;;9.10;98.00;;;;;;5114401;28;20454;-65
2023/04/16 03:16:38;;;;;;;3.87;2.70;;;9.10;98.00;;;;;;5114171;28;20486;-65
2023/04/16 03:19:05;;;;;;;3.80;2.47;;;9.20;98.00;;;;;;5114761;28;20454;-66
2023/04/16 03:21:32;;;;;;;4.90;2.30;;;9.10;98.00;;;;;;5115187;28;20446;-67
2023/04/16 03:24:02;;;;;;;2.00;1.73;;;9.00;98.00;;;;;;5114488;28;20455;-64
2023/04/16 03:26:29;;;;;;;4.60;2.73;;;9.10;98.00;;;;;;5115091;28;20817;-65
2023/04/16 03:28:57;;;;;;;3.80;2.40;;;9.20;98.00;;;;;;5114411;28;20509;-67
2023/04/16 03:31:24;;;;;;;4.53;2.50;;;9.20;98.00;;;;;;5114244;28;20454;-65
2023/04/16 03:33:52;;;;;;;3.73;2.43;;;9.20;98.00;;;;;;5114133;28;21009;-65
2023/04/16 03:36:19;;;;;;;7.00;2.17;;;9.30;98.00;;;;;;5114372;28;20536;-65
2023/04/16 03:38:46;;;;;;;3.70;2.63;;;9.20;98.00;;;;;;5113991;28;20455;-66
2023/04/16 03:41:15;;;;;;;6.57;3.07;;;9.20;98.00;;;;;;5114083;28;20451;-65
2023/04/16 03:43:42;;;;;;;4.47;2.87;;;9.20;98.00;;;;;;5113959;28;20975;-65
2023/04/16 03:46:11;;;;;;;9.30;2.40;;;9.20;98.00;;;;;;5114061;28;20523;-65
2023/04/16 03:48:38;;;;;;;3.87;2.43;;;9.30;98.00;;;;;;5113701;28;20507;-65
2023/04/16 03:51:05;;;;;;;6.30;2.90;;;9.30;98.00;;;;;;5095664;28;20460;-65
2023/04/16 03:53:33;;;;;;;3.73;2.13;;;9.30;98.00;;;;;;5111730;28;20458;-65
2023/04/16 03:56:00;;;;;;;4.77;2.30;;;9.30;98.00;;;;;;5113344;28;20469;-65
2023/04/16 03:58:30;;;;;;;5.27;3.00;;;9.40;98.00;;;;;;5113654;28;20474;-66
2023/04/16 04:00:57;;;;;;;4.80;2.40;;;9.40;98.00;;;;;;5113434;28;20554;-66
2023/04/16 04:03:24;;;;;;;4.17;2.63;;;9.30;98.00;;;;;;5113397;28;20463;-66
2023/04/16 04:05:52;;;;;;;4.90;2.30;;;9.40;98.00;;;;;;5112739;28;20817;-66
2023/04/16 04:08:20;;;;;;;6.10;2.57;;;9.40;98.00;;;;;;5113407;28;20866;-67
2023/04/16 04:10:47;;;;;;;5.97;2.63;;;9.40;98.00;;;;;;5113490;28;20451;-65
2023/04/16 04:13:14;;;;;;;6.33;2.67;;;9.40;98.00;;;;;;5113274;28;20538;-66
2023/04/16 04:15:43;;;;;;;3.00;2.20;;;9.40;98.00;;;;;;5113050;28;20447;-66
2023/04/16 04:18:12;;;;;;;4.23;2.47;;;9.40;98.00;;;;;;5113033;28;20555;-67
2023/04/16 04:20:40;;;;;;;3.80;2.60;;;9.20;98.00;;;;;;5112196;28;20443;-65
2023/04/16 04:23:07;;;;;;;4.20;2.73;;;9.20;98.00;;;;;;5113120;28;20459;-65
2023/04/16 04:25:34;;;;;;;4.87;2.60;;;9.20;98.00;;;;;;5113132;28;20458;-65
2023/04/16 04:28:07;;;;;;;6.17;2.73;;;9.20;98.00;;;;;;5112888;28;20504;-65
2023/04/16 04:30:34;;;;;;;6.60;2.80;;;9.30;98.00;;;;;;5113144;28;20508;-65
2023/04/16 04:33:03;;;;;;;3.87;2.63;;;9.20;98.00;;;;;;5095137;28;20453;-66
2023/04/16 04:35:30;;;;;;;6.07;2.10;;;9.10;98.00;;;;;;5113040;28;21010;-65
2023/04/16 04:37:57;;;;;;;7.53;2.57;;;9.10;98.00;;;;;;5112657;28;20489;-66
2023/04/16 04:40:25;;;;;;;9.80;2.93;;;9.00;98.00;;;;;;5113041;28;20860;-65
2023/04/16 04:42:52;;;;;;;5.10;2.37;;;8.90;98.00;;;;;;5112482;28;20549;-64
2023/04/16 04:45:19;;;;;;;6.50;2.83;;;9.00;98.00;;;;;;5112643;28;20447;-67
2023/04/16 04:47:46;;;;;;;4.90;2.50;;;9.00;98.00;;;;;;5112676;28;20462;-65
2023/04/16 04:50:17;;;;;;;3.33;2.10;;;8.90;98.00;;;;;;5112432;28;20455;-67
2023/04/16 04:52:45;;;;;;;5.10;2.80;;;8.90;98.00;;;;;;5112423;28;20459;-67
2023/04/16 04:55:14;;;;;;;7.87;2.67;;;9.00;98.00;;;;;;5094418;28;20460;-65
2023/04/16 04:57:43;;;;;;;5.23;2.20;;;9.10;98.00;;;;;;5112092;28;20479;-65
2023/04/16 05:00:11;;;;;;;7.27;3.50;;;9.10;98.00;;;;;;5112454;28;20493;-65
2023/04/16 05:02:38;;;;;;;5.77;2.50;;;9.20;98.00;;;;;;5112183;28;20466;-66
2023/04/16 05:05:06;;;;;;;3.33;2.40;;;9.10;98.00;;;;;;5112170;28;20494;-65
2023/04/16 05:07:35;;;;;;;3.60;2.77;;;9.10;98.00;;;;;;5112201;28;20458;-65
2023/04/16 05:10:02;;;;;;;6.57;2.97;;;9.10;98.00;;;;;;5112477;28;20732;-66
2023/04/16 05:12:29;;;;;;;7.13;2.77;;;9.00;98.00;;;;;;5094268;28;20507;-66
2023/04/16 05:14:56;;;;;;;5.13;2.70;;;9.10;98.00;;;;;;5111902;28;20455;-65
2023/04/16 05:17:26;;;;;;;7.17;2.97;;;9.10;98.00;;;;;;5112034;28;20482;-67
2023/04/16 05:19:53;;;;;;;4.70;3.00;;;9.20;98.00;;;;;;5112159;28;20504;-65
2023/04/16 05:22:21;;;;;;;3.30;2.20;;;9.20;98.00;;;;;;5111938;28;20459;-65
2023/04/16 05:24:49;;;;;;;4.60;2.67;;;9.20;98.00;;;;;;5111878;28;20531;-66
2023/04/16 05:27:16;;;;;;;4.60;2.53;;;9.30;98.00;;;;;;5093837;28;20454;-65
2023/04/16 05:29:45;;;;;;;4.43;2.80;;;9.30;98.00;;;;;;5112101;28;20454;-66
2023/04/16 05:32:12;;;;;;;6.67;2.97;;;9.30;98.00;;;;;;5111918;28;20459;-66
2023/04/16 05:34:39;;;;;;;7.20;2.70;;;9.30;98.00;;;;;;5111920;28;20459;-66
2023/04/16 05:37:06;;;;;;;4.70;2.63;;;9.30;98.00;;;;;;5111674;28;20556;-66
2023/04/16 05:39:33;;;;;;;5.47;2.90;;;9.30;98.00;;;;;;5111737;28;20473;-65
2023/04/16 05:42:01;;;;;;;5.43;3.37;;;9.10;98.00;;;;;;5111440;28;20511;-66
2023/04/16 05:44:28;;;;;;;5.23;2.50;;;9.10;98.00;;;;;;5111707;28;20447;-66
2023/04/16 05:46:55;;;;;;;6.93;2.87;;;9.10;98.00;;;;;;5111653;28;20462;-65
2023/04/16 05:49:28;;;;;;;7.00;3.20;;;9.10;98.00;;;;;;5111604;28;20475;-66
2023/04/16 05:51:57;;;;;;;3.33;2.53;;;9.10;98.00;;;;;;5111564;28;20456;-66
2023/04/16 05:54:24;;;;;;;5.53;3.33;;;9.10;98.00;;;;;;5111903;28;20842;-65
2023/04/16 05:56:51;;;;;;;5.13;2.37;;;9.10;98.00;;;;;;5093354;28;21001;-67
2023/04/16 05:59:19;;;;;;;7.93;2.70;;;9.10;98.00;;;;;;5111711;28;21004;-65
2023/04/16 06:01:47;;;;;;;4.20;2.80;;;9.20;98.00;;;;;;5111607;28;20945;-64
2023/04/16 06:04:14;;;;;;;5.30;2.73;;;9.10;98.00;;;;;;5111466;28;20466;-65
2023/04/16 06:06:41;;;;;;;7.07;3.00;;;9.10;98.00;;;;;;5111382;28;20463;-65
2023/04/16 06:09:09;;;;;;;4.30;2.77;;;9.20;98.00;;;;;;5093603;28;20459;-64
2023/04/16 06:11:36;;;;;;;9.53;2.70;;;9.20;98.00;;;;;;5111682;28;20458;-64
2023/04/16 06:14:03;;;;;;;4.33;2.70;;;9.10;98.00;;;;;;5093474;28;20447;-64
2023/04/16 06:16:31;;;;;;;6.20;3.47;;;8.90;98.00;;;;;;5111488;28;20512;-64
2023/04/16 06:18:58;;;;;;;7.60;3.40;;;8.90;98.00;;;;;;5111352;28;20489;-64
2023/04/16 06:21:26;;;;;;;6.10;3.13;;;8.80;98.00;;;;;;5093600;28;20459;-64
2023/04/16 06:23:55;;;;;;;8.63;3.10;;;8.90;98.00;;;;;;5111294;28;20498;-63
2023/04/16 06:26:22;;;;;;;9.40;3.90;;;8.90;98.00;;;;;;5076871;28;20450;-64
2023/04/16 06:28:49;;;;;;;6.10;3.33;;;8.80;98.00;;;;;;5111538;28;20459;-64
2023/04/16 06:31:16;;;;;;;5.90;3.60;;;9.00;98.00;;;;;;5111550;28;20507;-63
2023/04/16 06:33:45;;;;;;;10.60;3.07;;;9.00;98.00;;;;;;5111243;28;20509;-64
2023/04/16 06:36:12;;;;;;;6.27;3.73;;;9.00;98.00;;;;;;5111264;28;20509;-64
2023/04/16 06:38:39;;;;;;;9.13;4.20;;;9.00;98.00;;;;;;5111153;28;21092;-64
2023/04/16 06:41:07;;;;;;;9.70;3.30;;;9.00;98.00;;;;;;5107631;28;20857;-65
2023/04/16 06:43:34;;;;;;;5.80;3.73;;;9.10;98.00;;;;;;5113651;28;20507;-63
2023/04/16 06:46:02;;;;;;;8.80;3.37;;;9.10;98.00;;;;;;5115107;28;21013;-63
2023/04/16 06:48:30;;;;;;;8.23;3.50;;;9.10;98.00;;;;;;5114967;28;20449;-64
2023/04/16 06:50:58;;;;;;;7.43;3.60;;;9.10;98.00;;;;;;5114903;28;20873;-64
2023/04/16 06:53:25;;;;;;;7.03;3.67;;;9.10;98.00;;;;;;5114822;28;20444;-65
2023/04/16 06:55:52;;;;;;;10.30;4.50;;;9.10;98.00;;;;;;5114602;28;20531;-64
2023/04/16 06:58:21;;;;;;;5.33;3.00;;;9.20;98.00;;;;;;5096582;28;20474;-64
2023/04/16 07:00:48;;;;;;;5.07;3.60;;;9.20;98.00;;;;;;5096971;28;20825;-64
2023/04/16 07:03:15;;;;;;;8.07;4.43;;;9.20;98.00;;;;;;5114629;28;20458;-64
2023/04/16 07:05:42;;;;;;;12.00;4.50;;;9.20;98.00;;;;;;5114696;28;20443;-65
2023/04/16 07:08:11;;;;;;;7.10;3.60;;;9.20;98.00;;;;;;5114665;28;20874;-65
2023/04/16 07:10:38;;;;;;;9.87;4.00;;;9.30;98.00;;;;;;5114693;28;20813;-64
2023/04/16 07:13:05;;;;;;;10.33;3.73;;;9.30;98.00;;;;;;5092485;28;20502;-64
2023/04/16 07:15:36;;;;;;;10.40;4.43;;;9.30;98.00;;;;;;5111513;28;20481;-64
2023/04/16 07:18:03;;;;;;;7.93;3.30;;;9.30;98.00;;;;;;5096723;28;20493;-64
2023/04/16 07:20:30;;;;;;;9.53;4.10;;;9.30;98.00;;;;;;5114588;28;20455;-64
2023/04/16 07:22:58;;;;;;;12.03;5.13;;;9.40;98.00;;;;;;5114360;28;20500;-64
2023/04/16 07:25:27;;;;;;;9.13;3.83;;;9.30;98.00;;;;;;5114602;28;20486;-63
2023/04/16 07:27:55;;;;;;;9.50;4.20;;;9.30;98.00;;;;;;5114462;28;20454;-64
2023/04/16 07:30:22;;;;;;;11.00;3.63;;;9.40;98.00;;;;;;5113915;28;20454;-64
2023/04/16 07:32:50;;;;;;;6.60;3.50;;;9.40;98.00;;;;;;5110998;28;20820;-64
2023/04/16 07:35:17;;;;;;;10.90;4.57;;;9.40;98.00;;;;;;5114187;28;20462;-64
2023/04/16 07:37:45;;;;;;;8.30;4.03;;;9.40;98.00;;;;;;5113869;28;20526;-66
2023/04/16 07:40:12;;;;;;;11.27;4.20;;;9.40;98.00;;;;;;5094742;28;20959;-64
2023/04/16 07:42:41;;;;;;;7.30;3.47;;;9.40;98.00;;;;;;5075911;28;20459;-64
2023/04/16 07:45:09;;;;;;;7.87;3.90;;;9.40;98.00;;;;;;5075671;28;20545;-64
2023/04/16 07:47:36;;;;;;;9.43;3.93;;;9.50;98.00;;;;;;5093505;28;20470;-64
2023/04/16 07:50:04;;;;;;;8.80;3.80;;;9.50;98.00;;;;;;5093424;28;20873;-64
2023/04/16 07:52:31;;;;;;;6.63;3.27;;;9.50;98.00;;;;;;5093449;28;20506;-64
2023/04/16 07:54:58;;;;;;;8.10;4.27;;;9.60;98.00;;;;;;5093253;28;20855;-64
2023/04/16 07:57:25;;;;;;;9.13;4.33;;;9.60;98.00;;;;;;5093096;28;20908;-63
2023/04/16 08:00:03;;;;;;;11.00;5.07;;;9.60;98.00;;;;;;5100799;28;21194;-66
2023/04/16 08:02:31;;;;;;;8.80;3.87;;;9.70;98.00;;;;;;5104812;28;20873;-65
2023/04/16 08:05:00;;;;;;;7.83;4.37;;;9.70;98.00;;;;;;5113226;28;20874;-64
2023/04/16 08:07:27;;;;;;;11.73;4.67;;;9.80;98.00;;;;;;5113329;28;20491;-64
2023/04/16 08:09:55;;;;;;;6.73;3.47;;;9.80;98.00;;;;;;5113314;28;20867;-64
2023/04/16 08:12:22;;;;;;;5.87;3.70;;;9.80;98.00;;;;;;5108685;28;20783;-65
2023/04/16 08:14:50;;;;;;;14.57;4.80;;;9.80;98.00;;;;;;5092775;28;20548;-65
2023/04/16 08:17:19;;;;;;;10.17;4.50;;;9.70;98.00;;;;;;5092855;28;20880;-65
2023/04/16 08:19:46;;;;;;;7.07;3.80;;;9.80;98.00;;;;;;5092651;28;21019;-64
2023/04/16 08:22:14;;;;;;;7.20;3.80;;;9.80;98.00;;;;;;5092799;28;20457;-65
2023/04/16 08:24:41;;;;;;;6.77;3.73;;;9.80;98.00;;;;;;5093043;28;20516;-66
2023/04/16 08:27:11;;;;;;;10.00;4.03;;;9.80;98.00;;;;;;5108967;28;20516;-64
2023/04/16 08:29:39;;;;;;;11.00;4.10;;;9.80;98.00;;;;;;5095520;28;20484;-64
2023/04/16 08:32:09;;;;;;;14.73;5.47;;;9.70;98.00;;;;;;5112369;28;20962;-65
2023/04/16 08:34:37;;;;;;;6.63;3.13;;;9.70;98.00;;;;;;5112676;28;20458;-65
2023/04/16 08:37:04;;;;;;;14.00;5.13;;;9.70;98.00;;;;;;5112840;28;20502;-64
2023/04/16 08:39:31;;;;;;;8.73;3.70;;;9.80;98.00;;;;;;5112525;28;20575;-64
2023/04/16 08:41:59;;;;;;;11.13;4.70;;;9.70;98.00;;;;;;5103264;28;20454;-66
2023/04/16 08:44:30;;;;;;;9.50;3.27;;;9.80;98.00;;;;;;5112602;28;20456;-64
2023/04/16 08:46:57;;;;;;;6.60;3.17;;;9.80;98.00;;;;;;5095334;28;20474;-65
2023/04/16 08:49:26;;;;;;;7.53;3.50;;;9.80;98.00;;;;;;5094519;28;20545;-64
2023/04/16 08:51:55;;;;;;;6.40;3.47;;;9.80;98.00;;;;;;5092158;28;20503;-64
2023/04/16 08:54:43;;;;;;;7.10;3.80;;;9.80;98.00;;;;;;5092051;28;20466;-65
2023/04/16 08:57:12;;;;;;;9.40;4.20;;;9.80;98.00;;;;;;5091230;28;20559;-63
2023/04/16 08:59:40;;;;;;;8.10;3.83;;;9.60;98.00;;;;;;5096271;28;20822;-64
2023/04/16 09:02:07;;;;;;;7.30;3.10;;;9.50;98.00;;;;;;5098345;28;20585;-65
2023/04/16 09:04:36;;;;;;;10.70;3.50;;;9.40;98.00;;;;;;5091890;28;20463;-64
2023/04/16 09:07:07;;;;;;;8.90;3.67;;;9.50;98.00;;;;;;5073461;28;20460;-65
2023/04/16 09:09:35;;;;;;;8.07;3.90;;;9.40;98.00;;;;;;5094606;28;20517;-64
2023/04/16 09:12:03;;;;;;;8.17;3.90;;;9.50;98.00;;;;;;5091953;28;20875;-64
2023/04/16 09:14:30;;;;;;;6.43;3.60;;;9.50;98.00;;;;;;5091950;28;20883;-64
2023/04/16 09:17:00;;;;;;;9.63;3.50;;;9.60;98.00;;;;;;5074079;28;20459;-65
2023/04/16 09:19:27;;;;;;;5.93;3.50;;;9.60;98.00;;;;;;5092919;28;20487;-65
2023/04/16 09:21:54;;;;;;;8.83;3.50;;;9.60;98.00;;;;;;5092140;28;20894;-64
2023/04/16 09:24:23;;;;;;;6.83;3.40;;;9.50;98.00;;;;;;5058604;28;20836;-64
2023/04/16 09:26:52;;;;;;;7.93;3.23;;;9.50;98.00;;;;;;5092473;28;20862;-65
2023/04/16 09:29:35;;;;;;;7.03;3.43;;;9.40;98.00;;;;;;5092164;28;20520;-64
2023/04/16 09:32:04;;;;;;;7.13;3.20;;;9.50;98.00;;;;;;5091683;28;20461;-65
2023/04/16 09:34:33;;;;;;;6.80;3.27;;;9.50;98.00;;;;;;5091625;28;20491;-65
2023/04/16 09:37:15;;;;;;;8.10;4.00;;;9.40;98.00;;;;;;5091371;28;21047;-64
2023/04/16 09:39:44;;;;;;;8.10;3.40;;;9.40;98.00;;;;;;5091457;28;20939;-65
2023/04/16 09:42:12;;;;;;;7.90;3.10;;;9.40;98.00;;;;;;5091432;28;20459;-64
2023/04/16 09:44:39;;;;;;;8.53;3.33;;;9.30;98.00;;;;;;5091274;28;20463;-65
2023/04/16 09:59:19;;;;;;;9.43;3.53;;;9.50;98.00;;;;;;4989709;28;20503;-65
2023/04/16 10:01:48;;;;;;;5.67;3.53;;;9.40;98.00;;;;;;4992788;28;20463;-64
2023/04/16 10:04:15;;;;;;;8.10;3.30;;;9.40;98.00;;;;;;4992276;28;20457;-64
2023/04/16 10:06:42;;;;;;;5.10;2.97;;;9.40;98.00;;;;;;4991819;28;20487;-64
2023/04/16 10:09:10;;;;;;;8.40;3.80;;;9.40;98.00;;;;;;4991657;28;20559;-63
2023/04/16 10:11:37;;;;;;;7.57;3.80;;;9.40;98.00;;;;;;4991625;28;20479;-64
2023/04/16 10:14:05;;;;;;;6.50;2.80;;;9.50;98.00;;;;;;4991416;28;20912;-64
2023/04/16 10:16:34;;;;;;;6.70;3.67;;;9.50;98.00;;;;;;4991678;28;20488;-64
2023/04/16 10:19:02;;;;;;;6.87;3.20;;;9.50;98.00;;;;;;4994389;28;20577;-64
2023/04/16 10:21:32;;;;;;;5.80;3.60;;;9.50;98.00;;;;;;5010104;28;20457;-64
2023/04/16 10:24:00;;;;;;;4.60;2.90;;;9.60;98.00;;;;;;4995490;28;20825;-64
2023/04/16 10:26:29;;;;;;;4.37;2.80;;;9.50;98.00;;;;;;4995396;28;20897;-64
2023/04/16 10:28:58;;;;;;;7.40;3.50;;;9.50;98.00;;;;;;4995075;28;20957;-64
2023/04/16 10:31:28;;;;;;;6.97;3.60;;;9.50;98.00;;;;;;4995733;28;20878;-64
2023/04/16 10:33:58;;;;;;;7.00;3.70;;;9.60;98.00;;;;;;4994971;28;20518;-63
2023/04/16 10:36:26;;;;;;;9.90;3.90;;;9.60;98.00;;;;;;4995371;28;20468;-64
2023/04/16 10:38:57;;;;;;;6.50;3.30;;;9.50;98.00;;;;;;5010014;28;20492;-64
2023/04/16 10:41:26;;;;;;;6.80;3.13;;;9.60;98.00;;;;;;4995242;28;20833;-63
2023/04/16 10:44:04;;;;;;;8.47;3.30;;;9.70;98.00;;;;;;4995058;28;20480;-64
2023/04/16 10:46:34;;;;;;;11.83;3.90;;;9.70;98.00;;;;;;4995309;28;20482;-64
2023/04/16 10:49:13;;;;;;;5.77;3.37;;;9.70;98.00;;;;;;4994936;28;20491;-64
2023/04/16 10:51:40;;;;;;;7.17;3.73;;;9.60;98.00;;;;;;4995099;28;20462;-64
2023/04/16 10:54:22;;;;;;;6.07;3.23;;;9.70;98.00;;;;;;4995097;28;20968;-63
2023/04/16 10:56:50;;;;;;;7.40;3.50;;;9.70;98.00;;;;;;4995076;28;20709;-64
2023/04/16 10:59:20;;;;;;;8.43;4.03;;;9.80;98.00;;;;;;4994919;28;21043;-64
2023/04/16 11:01:51;;;;;;;7.27;3.33;;;9.80;98.00;;;;;;4995558;28;20472;-64
2023/04/16 11:04:34;;;;;;;6.70;3.20;;;9.80;98.00;;;;;;4995140;28;20467;-64
2023/04/16 11:07:02;;;;;;;7.13;3.20;;;9.70;98.00;;;;;;4994967;28;20498;-64
2023/04/16 11:09:53;;;;;;;7.37;3.47;;;9.60;98.00;;;;;;4994955;28;20833;-64
2023/04/16 11:12:22;;;;;;;5.67;3.00;;;9.70;98.00;;;;;;4994721;28;20470;-64
2023/04/16 11:14:50;;;;;;;7.07;3.33;;;9.70;98.00;;;;;;4994711;28;20468;-64
2023/04/16 11:17:18;;;;;;;5.40;2.97;;;9.70;98.00;;;;;;4994243;28;20460;-64
2023/04/16 11:19:50;;;;;;;7.00;3.03;;;9.60;98.00;;;;;;4994513;28;20498;-64
2023/04/16 11:22:18;;;;;;;8.53;3.30;;;9.60;98.00;;;;;;4994489;28;20935;-64
2023/04/16 11:24:45;;;;;;;6.10;2.87;;;9.50;98.00;;;;;;4994272;28;20467;-64
2023/04/16 11:27:14;;;;;;;6.57;3.60;;;9.50;98.00;;;;;;4996867;28;20459;-65
2023/04/16 11:29:41;;;;;;;6.80;2.97;;;9.50;98.00;;;;;;5013398;28;20466;-64
2023/04/16 11:32:08;;;;;;;7.57;2.80;;;9.50;98.00;;;;;;5014500;28;20502;-64
2023/04/16 11:34:44;;;;;;;7.33;2.67;;;9.50;98.00;;;;;;4996949;28;20469;-64
2023/04/16 11:37:13;;;;;;;5.67;2.80;;;9.50;98.00;;;;;;5014390;28;20558;-64
2023/04/16 11:39:51;;;;;;;6.30;3.17;;;9.50;98.00;;;;;;4996771;28;20492;-64
2023/04/16 11:42:22;;;;;;;6.17;3.13;;;9.60;98.00;;;;;;5014525;28;20461;-64
2023/04/16 11:44:54;;;;;;;5.57;2.90;;;9.60;98.00;;;;;;5014466;28;20527;-64
2023/04/16 11:47:22;;;;;;;9.07;4.63;;;9.50;98.00;;;;;;5014410;28;20533;-64
2023/04/16 11:49:49;;;;;;;10.40;4.33;;;9.50;98.00;;;;;;5014386;28;20955;-64
2023/04/16 11:52:27;;;;;;;5.60;2.90;;;9.50;98.00;;;;;;5010193;28;20494;-63
2023/04/16 11:54:54;;;;;;;4.80;2.80;;;9.60;98.00;;;;;;5002120;28;20864;-65
2023/04/16 11:57:26;;;;;;;5.90;3.30;;;9.60;98.00;;;;;;4994622;28;20473;-64
2023/04/16 11:59:53;;;;;;;10.03;3.57;;;9.60;98.00;;;;;;4994523;28;20511;-65
2023/04/16 12:02:35;;;;;;;6.43;3.23;;;9.60;98.00;;;;;;4994282;28;20964;-64
2023/04/16 12:05:03;;;;;;;7.93;3.33;;;9.70;98.00;;;;;;4994401;28;21037;-64
2023/04/16 12:07:32;;;;;;;6.27;3.43;;;9.60;98.00;;;;;;4976799;28;20905;-64
2023/04/16 12:10:07;;;;;;;6.00;3.03;;;9.70;98.00;;;;;;4994081;28;20459;-64
2023/04/16 12:12:34;;;;;;;5.87;2.97;;;9.70;98.00;;;;;;4993063;28;20546;-64
2023/04/16 12:15:03;;;;;;;4.80;3.10;;;9.70;98.00;;;;;;4994154;28;20463;-64
2023/04/16 12:17:31;;;;;;;5.20;2.80;;;9.60;98.00;;;;;;4994257;28;20460;-64
2023/04/16 12:20:00;;;;;;;5.50;2.73;;;9.70;98.00;;;;;;4992695;28;20486;-64
2023/04/16 12:22:29;;;;;;;4.23;2.70;;;9.70;98.00;;;;;;4994294;28;20452;-64
2023/04/16 12:24:59;;;;;;;3.77;2.90;;;9.60;98.00;;;;;;4993964;28;20459;-64
2023/04/16 12:27:27;;;;;;;4.23;2.40;;;9.60;98.00;;;;;;4994301;28;20813;-65
2023/04/16 12:30:06;;;;;;;6.70;3.10;;;9.70;98.00;;;;;;4992711;28;20459;-64
2023/04/16 12:32:33;;;;;;;4.03;2.37;;;9.70;98.00;;;;;;4994049;28;21012;-65
2023/04/16 12:35:00;;;;;;;4.30;2.43;;;9.70;98.00;;;;;;4993898;28;20456;-65
2023/04/16 12:37:28;;;;;;;4.67;2.50;;;9.80;98.00;;;;;;4993865;28;20460;-64
2023/04/16 12:39:57;;;;;;;6.10;2.60;;;9.80;98.00;;;;;;4993353;28;20991;-65
2023/04/16 12:42:24;;;;;;;2.27;1.73;;;9.80;98.00;;;;;;4992973;28;20471;-64
2023/04/16 12:44:53;;;;;;;4.67;2.23;;;9.60;98.00;;;;;;4995440;28;20460;-64
2023/04/16 12:47:20;;;;;;;2.40;2.10;;;9.70;98.00;;;;;;4999180;28;20466;-64
2023/04/16 12:49:47;;;;;;;4.73;2.67;;;9.70;98.00;;;;;;5001902;28;20518;-68
2023/04/16 12:52:14;;;;;;;3.00;2.30;;;9.80;98.00;;;;;;4999252;28;20462;-68
2023/04/16 12:54:42;;;;;;;3.90;2.70;;;9.80;98.00;;;;;;4988742;28;20486;-66
2023/04/16 12:57:11;;;;;;;3.70;2.20;;;9.80;98.00;;;;;;5013182;28;20459;-65
2023/04/16 12:59:38;;;;;;;3.10;2.00;;;9.80;98.00;;;;;;5012998;28;20487;-66
2023/04/16 13:02:06;;;;;;;6.90;2.33;;;9.80;98.00;;;;;;5012756;28;20462;-66
2023/04/16 13:04:38;;;;;;;3.77;2.27;;;9.70;98.00;;;;;;4992456;28;20469;-66
2023/04/16 13:07:09;;;;;;;6.33;2.70;;;9.80;98.00;;;;;;4993055;28;20525;-66
2023/04/16 13:09:36;;;;;;;3.17;2.17;;;9.80;98.00;;;;;;4992825;28;20997;-66
2023/04/16 13:12:03;;;;;;;4.83;2.30;;;9.90;98.00;;;;;;4992969;28;20460;-65
2023/04/16 13:14:31;;;;;;;2.83;2.10;;;9.90;98.00;;;;;;4992789;28;20504;-65